sensor_id;sensor_type;location;lat;lon;timestamp;temperature;humidity
23669;DHT22;12011;47.422;15.018;2023-02-02T00:02:27;2.00;99.90
23669;DHT22;12011;47.422;15.018;2023-02-02T00:05:03;1.30;99.90
23669;DHT22;12011;47.422;15.018;2023-02-02T00:07:37;1.30;99.90
23669;DHT22;12011;47.422;15.018;2023-02-02T00:10:10;1.80;99.90
23669;DHT22;12011;47.422;15.018;2023-02-02T00:12:42;1.30;99.90
23669;DHT22;12011;47.422;15.018;2023-02-02T00:15:15;1.60;99.90
23669;DHT22;12011;47.422;15.018;2023-02-02T00:17:45;1.30;99.90
23669;DHT22;12011;47.422;15.018;2023-02-02T00:20:18;1.40;99.90
23669;DHT22;12011;47.422;15.018;2023-02-02T00:22:54;1.40;99.90
23669;DHT22;12011;47.422;15.018;2023-02-02T00:25:29;1.50;99.90
23669;DHT22;12011;47.422;15.018;2023-02-02T00:28:05;1.40;99.90
23669;DHT22;12011;47.422;15.018;2023-02-02T00:30:39;1.90;99.90
23669;DHT22;12011;47.422;15.018;2023-02-02T00:33:14;1.40;99.90
23669;DHT22;12011;47.422;15.018;2023-02-02T00:35:55;2.40;99.90
23669;DHT22;12011;47.422;15.018;2023-02-02T00:38:27;1.40;99.90
23669;DHT22;12011;47.422;15.018;2023-02-02T00:41:02;2.00;99.90
23669;DHT22;12011;47.422;15.018;2023-02-02T00:43:39;1.30;99.90
23669;DHT22;12011;47.422;15.018;2023-02-02T00:46:17;1.60;99.90
23669;DHT22;12011;47.422;15.018;2023-02-02T00:48:46;1.30;99.90
23669;DHT22;12011;47.422;15.018;2023-02-02T00:51:21;1.30;99.90
23669;DHT22;12011;47.422;15.018;2023-02-02T00:53:53;1.30;99.90
23669;DHT22;12011;47.422;15.018;2023-02-02T00:56:28;1.40;99.90
23669;DHT22;12011;47.422;15.018;2023-02-02T00:59:01;1.30;99.90
23669;DHT22;12011;47.422;15.018;2023-02-02T01:01:33;1.70;99.90
23669;DHT22;12011;47.422;15.018;2023-02-02T01:04:07;1.80;99.90
23669;DHT22;12011;47.422;15.018;2023-02-02T01:06:41;1.40;99.90
23669;DHT22;12011;47.422;15.018;2023-02-02T01:09:17;1.30;99.90
23669;DHT22;12011;47.422;15.018;2023-02-02T01:11:52;1.30;99.90
23669;DHT22;12011;47.422;15.018;2023-02-02T01:14:28;1.30;99.90
23669;DHT22;12011;47.422;15.018;2023-02-02T01:16:59;1.30;99.90
23669;DHT22;12011;47.422;15.018;2023-02-02T01:19:32;1.30;99.90
23669;DHT22;12011;47.422;15.018;2023-02-02T01:22:06;1.30;99.90
23669;DHT22;12011;47.422;15.018;2023-02-02T01:24:38;1.20;99.90
23669;DHT22;12011;47.422;15.018;2023-02-02T01:27:15;1.30;99.90
23669;DHT22;12011;47.422;15.018;2023-02-02T01:29:48;1.30;99.90
23669;DHT22;12011;47.422;15.018;2023-02-02T01:32:22;2.00;99.90
23669;DHT22;12011;47.422;15.018;2023-02-02T01:35:01;1.20;99.90
23669;DHT22;12011;47.422;15.018;2023-02-02T01:37:33;1.20;99.90
23669;DHT22;12011;47.422;15.018;2023-02-02T01:40:05;1.20;99.90
23669;DHT22;12011;47.422;15.018;2023-02-02T01:42:44;1.20;99.90
23669;DHT22;12011;47.422;15.018;2023-02-02T01:45:23;1.10;99.90
23669;DHT22;12011;47.422;15.018;2023-02-02T01:48:00;1.10;99.90
23669;DHT22;12011;47.422;15.018;2023-02-02T01:50:34;1.40;99.90
23669;DHT22;12011;47.422;15.018;2023-02-02T01:53:07;1.10;99.90
23669;DHT22;12011;47.422;15.018;2023-02-02T01:55:40;2.00;99.90
23669;DHT22;12011;47.422;15.018;2023-02-02T01:58:18;1.20;99.90
23669;DHT22;12011;47.422;15.018;2023-02-02T02:01:07;1.30;99.90
23669;DHT22;12011;47.422;15.018;2023-02-02T02:03:41;1.30;99.90
23669;DHT22;12011;47.422;15.018;2023-02-02T02:06:15;2.20;99.90
23669;DHT22;12011;47.422;15.018;2023-02-02T02:08:52;1.30;99.90
23669;DHT22;12011;47.422;15.018;2023-02-02T02:11:26;1.50;99.90
23669;DHT22;12011;47.422;15.018;2023-02-02T02:14:18;1.80;99.90
23669;DHT22;12011;47.422;15.018;2023-02-02T02:17:20;1.30;99.90
23669;DHT22;12011;47.422;15.018;2023-02-02T02:20:38;1.30;99.90
23669;DHT22;12011;47.422;15.018;2023-02-02T02:27:57;1.30;99.90
23669;DHT22;12011;47.422;15.018;2023-02-02T02:34:29;1.40;99.90
23669;DHT22;12011;47.422;15.018;2023-02-02T02:37:10;1.30;99.90
23669;DHT22;12011;47.422;15.018;2023-02-02T02:39:54;1.40;99.90
23669;DHT22;12011;47.422;15.018;2023-02-02T02:42:32;1.40;99.90
23669;DHT22;12011;47.422;15.018;2023-02-02T02:45:13;1.60;99.90
23669;DHT22;12011;47.422;15.018;2023-02-02T02:47:49;1.90;99.90
23669;DHT22;12011;47.422;15.018;2023-02-02T02:50:25;2.00;99.90
23669;DHT22;12011;47.422;15.018;2023-02-02T02:53:06;1.30;99.90
23669;DHT22;12011;47.422;15.018;2023-02-02T02:55:47;1.30;99.90
23669;DHT22;12011;47.422;15.018;2023-02-02T02:58:40;1.30;99.90
23669;DHT22;12011;47.422;15.018;2023-02-02T03:01:20;1.30;99.90
23669;DHT22;12011;47.422;15.018;2023-02-02T03:04:11;1.30;99.90
23669;DHT22;12011;47.422;15.018;2023-02-02T03:07:03;1.30;99.90
23669;DHT22;12011;47.422;15.018;2023-02-02T03:09:47;1.40;99.90
23669;DHT22;12011;47.422;15.018;2023-02-02T03:12:23;1.30;99.90
23669;DHT22;12011;47.422;15.018;2023-02-02T03:14:58;1.30;99.90
23669;DHT22;12011;47.422;15.018;2023-02-02T03:17:43;1.60;99.90
23669;DHT22;12011;47.422;15.018;2023-02-02T03:20:20;1.20;99.90
23669;DHT22;12011;47.422;15.018;2023-02-02T03:22:54;1.20;99.90
23669;DHT22;12011;47.422;15.018;2023-02-02T03:25:24;1.30;99.90
23669;DHT22;12011;47.422;15.018;2023-02-02T03:27:53;1.20;99.90
23669;DHT22;12011;47.422;15.018;2023-02-02T03:30:25;2.30;99.90
23669;DHT22;12011;47.422;15.018;2023-02-02T03:32:57;1.30;99.90
23669;DHT22;12011;47.422;15.018;2023-02-02T03:35:30;1.30;99.90
23669;DHT22;12011;47.422;15.018;2023-02-02T03:38:02;1.30;99.90
23669;DHT22;12011;47.422;15.018;2023-02-02T03:40:35;1.30;99.90
23669;DHT22;12011;47.422;15.018;2023-02-02T03:43:05;1.20;99.90
23669;DHT22;12011;47.422;15.018;2023-02-02T03:45:43;2.00;99.90
23669;DHT22;12011;47.422;15.018;2023-02-02T03:48:13;1.80;99.90
23669;DHT22;12011;47.422;15.018;2023-02-02T03:50:47;1.50;99.90
23669;DHT22;12011;47.422;15.018;2023-02-02T03:53:20;1.20;99.90
23669;DHT22;12011;47.422;15.018;2023-02-02T03:55:56;1.20;99.90
23669;DHT22;12011;47.422;15.018;2023-02-02T03:58:31;1.90;99.90
23669;DHT22;12011;47.422;15.018;2023-02-02T04:01:14;1.20;99.90
23669;DHT22;12011;47.422;15.018;2023-02-02T04:03:52;1.20;99.90
23669;DHT22;12011;47.422;15.018;2023-02-02T04:06:24;1.20;99.90
23669;DHT22;12011;47.422;15.018;2023-02-02T04:08:57;1.20;99.90
23669;DHT22;12011;47.422;15.018;2023-02-02T04:11:34;1.20;99.90
23669;DHT22;12011;47.422;15.018;2023-02-02T04:14:20;1.20;99.90
23669;DHT22;12011;47.422;15.018;2023-02-02T04:16:52;1.60;99.90
23669;DHT22;12011;47.422;15.018;2023-02-02T04:19:25;1.80;99.90
23669;DHT22;12011;47.422;15.018;2023-02-02T04:21:57;0.90;99.90
23669;DHT22;12011;47.422;15.018;2023-02-02T04:24:33;1.50;99.90
23669;DHT22;12011;47.422;15.018;2023-02-02T04:27:04;1.50;99.90
23669;DHT22;12011;47.422;15.018;2023-02-02T04:29:40;0.90;99.90
23669;DHT22;12011;47.422;15.018;2023-02-02T04:32:10;1.50;99.90
23669;DHT22;12011;47.422;15.018;2023-02-02T04:34:41;1.70;99.90
23669;DHT22;12011;47.422;15.018;2023-02-02T04:37:15;0.90;99.90
23669;DHT22;12011;47.422;15.018;2023-02-02T04:39:47;0.80;99.90
23669;DHT22;12011;47.422;15.018;2023-02-02T04:42:20;1.10;99.90
23669;DHT22;12011;47.422;15.018;2023-02-02T04:44:53;1.30;99.90
23669;DHT22;12011;47.422;15.018;2023-02-02T04:47:26;0.80;99.90
23669;DHT22;12011;47.422;15.018;2023-02-02T04:50:03;0.70;99.90
23669;DHT22;12011;47.422;15.018;2023-02-02T04:52:34;0.70;99.90
23669;DHT22;12011;47.422;15.018;2023-02-02T04:55:07;1.40;99.90
23669;DHT22;12011;47.422;15.018;2023-02-02T04:57:39;0.70;99.90
23669;DHT22;12011;47.422;15.018;2023-02-02T05:00:13;1.80;99.90
23669;DHT22;12011;47.422;15.018;2023-02-02T05:02:47;0.70;99.90
23669;DHT22;12011;47.422;15.018;2023-02-02T05:05:26;0.70;99.90
23669;DHT22;12011;47.422;15.018;2023-02-02T05:08:00;1.10;99.90
23669;DHT22;12011;47.422;15.018;2023-02-02T05:10:41;0.80;99.90
23669;DHT22;12011;47.422;15.018;2023-02-02T05:13:11;0.70;99.90
23669;DHT22;12011;47.422;15.018;2023-02-02T05:15:46;0.70;99.90
23669;DHT22;12011;47.422;15.018;2023-02-02T05:18:19;0.80;99.90
23669;DHT22;12011;47.422;15.018;2023-02-02T05:20:53;0.70;99.90
23669;DHT22;12011;47.422;15.018;2023-02-02T05:23:45;1.30;99.90
23669;DHT22;12011;47.422;15.018;2023-02-02T05:30:16;0.80;99.90
23669;DHT22;12011;47.422;15.018;2023-02-02T05:32:55;0.80;99.90
23669;DHT22;12011;47.422;15.018;2023-02-02T05:35:32;0.80;99.90
23669;DHT22;12011;47.422;15.018;2023-02-02T05:38:03;0.80;99.90
23669;DHT22;12011;47.422;15.018;2023-02-02T05:40:37;0.80;99.90
23669;DHT22;12011;47.422;15.018;2023-02-02T05:43:09;0.80;99.90
23669;DHT22;12011;47.422;15.018;2023-02-02T05:45:44;0.80;99.90
23669;DHT22;12011;47.422;15.018;2023-02-02T05:48:17;0.80;99.90
23669;DHT22;12011;47.422;15.018;2023-02-02T05:50:55;0.80;99.90
23669;DHT22;12011;47.422;15.018;2023-02-02T05:53:31;0.80;99.90
23669;DHT22;12011;47.422;15.018;2023-02-02T05:56:06;0.40;99.90
23669;DHT22;12011;47.422;15.018;2023-02-02T05:58:39;0.80;99.90
23669;DHT22;12011;47.422;15.018;2023-02-02T06:01:21;0.80;99.90
23669;DHT22;12011;47.422;15.018;2023-02-02T06:03:51;0.80;99.90
23669;DHT22;12011;47.422;15.018;2023-02-02T06:06:20;0.80;99.90
23669;DHT22;12011;47.422;15.018;2023-02-02T06:08:55;0.80;99.90
23669;DHT22;12011;47.422;15.018;2023-02-02T06:11:28;0.80;99.90
23669;DHT22;12011;47.422;15.018;2023-02-02T06:14:06;1.20;99.90
23669;DHT22;12011;47.422;15.018;2023-02-02T06:16:38;0.80;99.90
23669;DHT22;12011;47.422;15.018;2023-02-02T06:19:07;0.80;99.90
23669;DHT22;12011;47.422;15.018;2023-02-02T06:21:38;0.80;99.90
23669;DHT22;12011;47.422;15.018;2023-02-02T06:24:08;0.80;99.90
23669;DHT22;12011;47.422;15.018;2023-02-02T06:26:37;0.80;99.90
23669;DHT22;12011;47.422;15.018;2023-02-02T06:29:11;0.80;99.90
23669;DHT22;12011;47.422;15.018;2023-02-02T06:31:44;0.80;99.90
23669;DHT22;12011;47.422;15.018;2023-02-02T06:34:13;0.80;99.90
23669;DHT22;12011;47.422;15.018;2023-02-02T06:36:43;0.80;99.90
23669;DHT22;12011;47.422;15.018;2023-02-02T06:39:12;0.80;99.90
23669;DHT22;12011;47.422;15.018;2023-02-02T06:41:42;0.90;99.90
23669;DHT22;12011;47.422;15.018;2023-02-02T06:44:14;0.90;99.90
23669;DHT22;12011;47.422;15.018;2023-02-02T06:46:47;0.90;99.90
23669;DHT22;12011;47.422;15.018;2023-02-02T06:49:16;1.60;99.90
23669;DHT22;12011;47.422;15.018;2023-02-02T06:51:46;0.90;99.90
23669;DHT22;12011;47.422;15.018;2023-02-02T06:54:16;0.90;99.90
23669;DHT22;12011;47.422;15.018;2023-02-02T06:57:04;0.90;99.90
23669;DHT22;12011;47.422;15.018;2023-02-02T06:59:34;1.20;99.90
23669;DHT22;12011;47.422;15.018;2023-02-02T07:02:11;1.50;99.90
23669;DHT22;12011;47.422;15.018;2023-02-02T07:26:46;1.10;99.90
23669;DHT22;12011;47.422;15.018;2023-02-02T07:29:17;1.10;99.90
23669;DHT22;12011;47.422;15.018;2023-02-02T07:31:46;2.20;99.90
23669;DHT22;12011;47.422;15.018;2023-02-02T07:34:16;1.80;99.90
23669;DHT22;12011;47.422;15.018;2023-02-02T07:36:46;1.80;99.90
23669;DHT22;12011;47.422;15.018;2023-02-02T07:39:15;1.90;99.90
23669;DHT22;12011;47.422;15.018;2023-02-02T07:41:47;1.60;99.90
23669;DHT22;12011;47.422;15.018;2023-02-02T07:44:29;1.40;99.90
23669;DHT22;12011;47.422;15.018;2023-02-02T07:46:59;1.70;99.90
23669;DHT22;12011;47.422;15.018;2023-02-02T07:49:28;1.60;99.90
23669;DHT22;12011;47.422;15.018;2023-02-02T07:51:57;1.20;99.90
23669;DHT22;12011;47.422;15.018;2023-02-02T07:54:27;1.40;99.90
23669;DHT22;12011;47.422;15.018;2023-02-02T07:56:59;1.60;99.90
23669;DHT22;12011;47.422;15.018;2023-02-02T07:59:29;1.30;99.90
23669;DHT22;12011;47.422;15.018;2023-02-02T08:01:59;1.70;99.90
23669;DHT22;12011;47.422;15.018;2023-02-02T08:04:28;2.00;99.90
23669;DHT22;12011;47.422;15.018;2023-02-02T08:06:58;1.30;99.90
23669;DHT22;12011;47.422;15.018;2023-02-02T08:09:28;1.90;99.90
23669;DHT22;12011;47.422;15.018;2023-02-02T08:12:00;1.60;99.90
23669;DHT22;12011;47.422;15.018;2023-02-02T08:14:30;1.60;99.90
23669;DHT22;12011;47.422;15.018;2023-02-02T08:17:00;1.40;99.90
23669;DHT22;12011;47.422;15.018;2023-02-02T08:19:29;2.00;99.90
23669;DHT22;12011;47.422;15.018;2023-02-02T08:21:59;1.40;99.90
23669;DHT22;12011;47.422;15.018;2023-02-02T08:24:30;1.70;99.90
23669;DHT22;12011;47.422;15.018;2023-02-02T08:27:02;2.20;99.90
23669;DHT22;12011;47.422;15.018;2023-02-02T08:36:39;1.50;99.90
23669;DHT22;12011;47.422;15.018;2023-02-02T08:39:11;1.40;99.90
23669;DHT22;12011;47.422;15.018;2023-02-02T08:41:41;2.30;99.90
23669;DHT22;12011;47.422;15.018;2023-02-02T08:44:15;1.70;99.90
23669;DHT22;12011;47.422;15.018;2023-02-02T08:46:45;1.60;99.90
23669;DHT22;12011;47.422;15.018;2023-02-02T08:49:15;1.50;99.90
23669;DHT22;12011;47.422;15.018;2023-02-02T08:51:44;1.50;99.90
23669;DHT22;12011;47.422;15.018;2023-02-02T08:54:14;1.60;99.90
23669;DHT22;12011;47.422;15.018;2023-02-02T08:56:43;1.70;99.90
23669;DHT22;12011;47.422;15.018;2023-02-02T08:59:15;2.20;99.90
23669;DHT22;12011;47.422;15.018;2023-02-02T09:01:44;1.90;99.90
23669;DHT22;12011;47.422;15.018;2023-02-02T09:04:14;1.90;99.90
23669;DHT22;12011;47.422;15.018;2023-02-02T09:06:44;1.90;99.90
23669;DHT22;12011;47.422;15.018;2023-02-02T09:09:15;2.30;99.90
23669;DHT22;12011;47.422;15.018;2023-02-02T09:11:45;2.30;99.90
23669;DHT22;12011;47.422;15.018;2023-02-02T09:14:18;2.10;99.90
23669;DHT22;12011;47.422;15.018;2023-02-02T09:16:47;2.20;99.90
23669;DHT22;12011;47.422;15.018;2023-02-02T09:19:17;2.20;99.90
23669;DHT22;12011;47.422;15.018;2023-02-02T09:21:48;2.20;99.90
23669;DHT22;12011;47.422;15.018;2023-02-02T09:24:18;2.30;99.90
23669;DHT22;12011;47.422;15.018;2023-02-02T09:26:47;2.30;99.90
23669;DHT22;12011;47.422;15.018;2023-02-02T09:29:20;2.30;99.90
23669;DHT22;12011;47.422;15.018;2023-02-02T09:31:49;2.30;99.90
23669;DHT22;12011;47.422;15.018;2023-02-02T09:34:19;2.30;99.90
23669;DHT22;12011;47.422;15.018;2023-02-02T09:36:48;2.30;99.90
23669;DHT22;12011;47.422;15.018;2023-02-02T09:39:19;2.30;99.90
23669;DHT22;12011;47.422;15.018;2023-02-02T09:42:21;2.30;99.90
23669;DHT22;12011;47.422;15.018;2023-02-02T09:45:05;2.40;99.90
23669;DHT22;12011;47.422;15.018;2023-02-02T09:47:51;2.50;99.90
23669;DHT22;12011;47.422;15.018;2023-02-02T09:50:37;2.50;99.90
23669;DHT22;12011;47.422;15.018;2023-02-02T09:53:20;2.60;99.90
23669;DHT22;12011;47.422;15.018;2023-02-02T09:55:58;2.50;99.90
23669;DHT22;12011;47.422;15.018;2023-02-02T09:58:33;2.70;99.90
23669;DHT22;12011;47.422;15.018;2023-02-02T10:01:14;2.40;99.90
23669;DHT22;12011;47.422;15.018;2023-02-02T10:03:57;2.40;99.90
23669;DHT22;12011;47.422;15.018;2023-02-02T10:06:37;2.50;99.90
23669;DHT22;12011;47.422;15.018;2023-02-02T10:09:22;2.40;99.90
23669;DHT22;12011;47.422;15.018;2023-02-02T10:12:02;2.50;99.90
23669;DHT22;12011;47.422;15.018;2023-02-02T10:14:41;2.50;99.90
23669;DHT22;12011;47.422;15.018;2023-02-02T10:17:31;2.50;99.90
23669;DHT22;12011;47.422;15.018;2023-02-02T10:20:29;2.60;99.90
23669;DHT22;12011;47.422;15.018;2023-02-02T10:23:12;2.50;99.90
23669;DHT22;12011;47.422;15.018;2023-02-02T10:25:55;2.60;99.90
23669;DHT22;12011;47.422;15.018;2023-02-02T10:28:40;2.60;99.90
23669;DHT22;12011;47.422;15.018;2023-02-02T10:31:17;2.60;99.90
23669;DHT22;12011;47.422;15.018;2023-02-02T10:34:04;2.60;99.90
23669;DHT22;12011;47.422;15.018;2023-02-02T10:36:54;2.70;99.90
23669;DHT22;12011;47.422;15.018;2023-02-02T10:39:42;2.60;99.90
23669;DHT22;12011;47.422;15.018;2023-02-02T10:42:31;2.50;99.90
23669;DHT22;12011;47.422;15.018;2023-02-02T10:45:14;2.60;99.90
23669;DHT22;12011;47.422;15.018;2023-02-02T10:47:46;2.60;99.90
23669;DHT22;12011;47.422;15.018;2023-02-02T10:50:19;2.60;99.90
23669;DHT22;12011;47.422;15.018;2023-02-02T10:52:54;2.70;99.90
23669;DHT22;12011;47.422;15.018;2023-02-02T10:55:36;2.50;99.90
23669;DHT22;12011;47.422;15.018;2023-02-02T10:58:19;2.40;99.90
23669;DHT22;12011;47.422;15.018;2023-02-02T11:00:54;2.20;99.90
23669;DHT22;12011;47.422;15.018;2023-02-02T11:03:37;2.10;99.90
23669;DHT22;12011;47.422;15.018;2023-02-02T11:06:16;2.10;99.90
23669;DHT22;12011;47.422;15.018;2023-02-02T11:09:20;2.30;99.90
23669;DHT22;12011;47.422;15.018;2023-02-02T11:12:04;2.40;99.90
23669;DHT22;12011;47.422;15.018;2023-02-02T11:14:55;2.60;99.90
23669;DHT22;12011;47.422;15.018;2023-02-02T11:17:32;2.50;99.90
23669;DHT22;12011;47.422;15.018;2023-02-02T11:20:22;2.40;99.90
23669;DHT22;12011;47.422;15.018;2023-02-02T11:23:04;2.50;99.90
23669;DHT22;12011;47.422;15.018;2023-02-02T11:25:40;2.40;99.90
23669;DHT22;12011;47.422;15.018;2023-02-02T11:28:19;2.20;99.90
23669;DHT22;12011;47.422;15.018;2023-02-02T11:30:59;2.40;99.90
23669;DHT22;12011;47.422;15.018;2023-02-02T11:33:36;2.40;99.90
23669;DHT22;12011;47.422;15.018;2023-02-02T11:36:19;2.50;99.90
23669;DHT22;12011;47.422;15.018;2023-02-02T11:39:14;2.50;99.90
23669;DHT22;12011;47.422;15.018;2023-02-02T11:41:44;2.30;99.90
23669;DHT22;12011;47.422;15.018;2023-02-02T11:44:27;2.20;99.90
23669;DHT22;12011;47.422;15.018;2023-02-02T11:47:06;2.10;99.90
23669;DHT22;12011;47.422;15.018;2023-02-02T11:49:48;2.10;99.90
23669;DHT22;12011;47.422;15.018;2023-02-02T11:52:24;2.20;99.90
23669;DHT22;12011;47.422;15.018;2023-02-02T11:55:01;2.20;99.90
23669;DHT22;12011;47.422;15.018;2023-02-02T11:57:43;2.30;99.90
23669;DHT22;12011;47.422;15.018;2023-02-02T12:00:52;2.40;99.90
23669;DHT22;12011;47.422;15.018;2023-02-02T12:03:35;2.60;99.90
23669;DHT22;12011;47.422;15.018;2023-02-02T12:06:26;2.60;99.90
23669;DHT22;12011;47.422;15.018;2023-02-02T12:09:16;2.60;99.90
23669;DHT22;12011;47.422;15.018;2023-02-02T12:12:01;2.60;99.90
23669;DHT22;12011;47.422;15.018;2023-02-02T12:14:47;2.70;99.90
23669;DHT22;12011;47.422;15.018;2023-02-02T12:17:38;2.60;99.90
23669;DHT22;12011;47.422;15.018;2023-02-02T12:20:27;2.60;99.90
23669;DHT22;12011;47.422;15.018;2023-02-02T12:26:30;2.70;99.90
23669;DHT22;12011;47.422;15.018;2023-02-02T12:29:33;2.70;99.90
23669;DHT22;12011;47.422;15.018;2023-02-02T12:32:49;3.00;99.90
23669;DHT22;12011;47.422;15.018;2023-02-02T12:35:47;3.10;99.90
23669;DHT22;12011;47.422;15.018;2023-02-02T12:38:43;2.00;99.90
23669;DHT22;12011;47.422;15.018;2023-02-02T12:41:47;3.30;99.90
23669;DHT22;12011;47.422;15.018;2023-02-02T12:44:36;3.40;99.90
23669;DHT22;12011;47.422;15.018;2023-02-02T12:47:27;3.60;99.90
23669;DHT22;12011;47.422;15.018;2023-02-02T12:50:06;3.60;99.90
23669;DHT22;12011;47.422;15.018;2023-02-02T12:53:04;3.60;99.90
23669;DHT22;12011;47.422;15.018;2023-02-02T12:55:49;3.60;99.90
23669;DHT22;12011;47.422;15.018;2023-02-02T12:58:35;3.50;99.90
23669;DHT22;12011;47.422;15.018;2023-02-02T13:01:31;3.40;99.90
23669;DHT22;12011;47.422;15.018;2023-02-02T13:04:40;3.40;99.90
23669;DHT22;12011;47.422;15.018;2023-02-02T13:07:32;3.20;99.90
23669;DHT22;12011;47.422;15.018;2023-02-02T13:10:18;3.20;99.90
23669;DHT22;12011;47.422;15.018;2023-02-02T13:12:56;3.30;99.90
23669;DHT22;12011;47.422;15.018;2023-02-02T13:15:35;3.20;99.90
23669;DHT22;12011;47.422;15.018;2023-02-02T13:18:20;3.10;99.90
23669;DHT22;12011;47.422;15.018;2023-02-02T13:20:58;3.10;99.90
23669;DHT22;12011;47.422;15.018;2023-02-02T13:23:35;3.10;99.90
23669;DHT22;12011;47.422;15.018;2023-02-02T13:26:14;3.10;99.90
23669;DHT22;12011;47.422;15.018;2023-02-02T13:28:52;3.00;99.90
23669;DHT22;12011;47.422;15.018;2023-02-02T13:31:30;2.90;99.90
23669;DHT22;12011;47.422;15.018;2023-02-02T13:34:16;2.80;99.90
23669;DHT22;12011;47.422;15.018;2023-02-02T13:36:53;2.90;99.90
23669;DHT22;12011;47.422;15.018;2023-02-02T13:39:33;2.80;99.90
23669;DHT22;12011;47.422;15.018;2023-02-02T13:42:12;2.80;99.90
23669;DHT22;12011;47.422;15.018;2023-02-02T13:44:52;2.80;99.90
23669;DHT22;12011;47.422;15.018;2023-02-02T13:47:33;2.80;99.90
23669;DHT22;12011;47.422;15.018;2023-02-02T13:50:16;2.70;99.90
23669;DHT22;12011;47.422;15.018;2023-02-02T13:53:11;2.60;99.90
23669;DHT22;12011;47.422;15.018;2023-02-02T13:56:23;2.60;99.90
23669;DHT22;12011;47.422;15.018;2023-02-02T14:02:46;2.30;99.90
23669;DHT22;12011;47.422;15.018;2023-02-02T14:05:28;2.30;99.90
23669;DHT22;12011;47.422;15.018;2023-02-02T14:08:03;2.20;99.90
23669;DHT22;12011;47.422;15.018;2023-02-02T14:10:55;2.20;99.90
23669;DHT22;12011;47.422;15.018;2023-02-02T14:13:43;2.30;99.90
23669;DHT22;12011;47.422;15.018;2023-02-02T14:16:50;2.20;99.90
23669;DHT22;12011;47.422;15.018;2023-02-02T14:19:46;2.10;99.90
23669;DHT22;12011;47.422;15.018;2023-02-02T14:22:41;2.00;99.90
23669;DHT22;12011;47.422;15.018;2023-02-02T14:28:45;1.90;99.90
23669;DHT22;12011;47.422;15.018;2023-02-02T14:31:39;1.80;99.90
23669;DHT22;12011;47.422;15.018;2023-02-02T14:34:28;1.90;99.90
23669;DHT22;12011;47.422;15.018;2023-02-02T14:37:29;1.80;99.90
23669;DHT22;12011;47.422;15.018;2023-02-02T14:40:33;1.70;99.90
23669;DHT22;12011;47.422;15.018;2023-02-02T14:43:21;1.70;99.90
23669;DHT22;12011;47.422;15.018;2023-02-02T14:46:22;1.70;99.90
23669;DHT22;12011;47.422;15.018;2023-02-02T14:49:10;1.70;99.90
23669;DHT22;12011;47.422;15.018;2023-02-02T14:51:52;1.70;99.90
23669;DHT22;12011;47.422;15.018;2023-02-02T14:54:31;1.70;99.90
23669;DHT22;12011;47.422;15.018;2023-02-02T14:57:22;1.70;99.90
23669;DHT22;12011;47.422;15.018;2023-02-02T14:59:55;1.60;99.90
23669;DHT22;12011;47.422;15.018;2023-02-02T15:02:33;1.60;99.90
23669;DHT22;12011;47.422;15.018;2023-02-02T15:08:20;1.50;99.90
23669;DHT22;12011;47.422;15.018;2023-02-02T15:11:03;1.50;99.90
23669;DHT22;12011;47.422;15.018;2023-02-02T15:13:57;1.40;99.90
23669;DHT22;12011;47.422;15.018;2023-02-02T15:16:36;1.40;99.90
23669;DHT22;12011;47.422;15.018;2023-02-02T15:19:22;1.60;99.90
23669;DHT22;12011;47.422;15.018;2023-02-02T15:22:13;1.30;99.90
23669;DHT22;12011;47.422;15.018;2023-02-02T15:24:53;1.30;99.90
23669;DHT22;12011;47.422;15.018;2023-02-02T15:27:27;1.30;99.90
23669;DHT22;12011;47.422;15.018;2023-02-02T15:30:03;1.30;99.90
23669;DHT22;12011;47.422;15.018;2023-02-02T15:32:36;1.20;99.90
23669;DHT22;12011;47.422;15.018;2023-02-02T15:35:16;1.20;99.90
23669;DHT22;12011;47.422;15.018;2023-02-02T15:37:54;1.20;99.90
23669;DHT22;12011;47.422;15.018;2023-02-02T15:40:29;1.10;99.90
23669;DHT22;12011;47.422;15.018;2023-02-02T15:43:04;1.10;99.90
23669;DHT22;12011;47.422;15.018;2023-02-02T15:45:43;1.10;99.90
23669;DHT22;12011;47.422;15.018;2023-02-02T15:48:22;1.10;99.90
23669;DHT22;12011;47.422;15.018;2023-02-02T15:50:59;1.10;99.90
23669;DHT22;12011;47.422;15.018;2023-02-02T15:53:43;1.10;99.90
23669;DHT22;12011;47.422;15.018;2023-02-02T15:56:19;1.10;99.90
23669;DHT22;12011;47.422;15.018;2023-02-02T15:58:58;1.30;99.90
23669;DHT22;12011;47.422;15.018;2023-02-02T16:01:32;1.30;99.90
23669;DHT22;12011;47.422;15.018;2023-02-02T16:04:18;1.00;99.90
23669;DHT22;12011;47.422;15.018;2023-02-02T16:06:50;1.00;99.90
23669;DHT22;12011;47.422;15.018;2023-02-02T16:09:24;1.00;99.90
23669;DHT22;12011;47.422;15.018;2023-02-02T16:11:55;1.00;99.90
23669;DHT22;12011;47.422;15.018;2023-02-02T16:14:29;1.00;99.90
23669;DHT22;12011;47.422;15.018;2023-02-02T16:17:12;0.90;99.90
23669;DHT22;12011;47.422;15.018;2023-02-02T16:19:49;0.90;99.90
23669;DHT22;12011;47.422;15.018;2023-02-02T16:22:21;0.80;99.90
23669;DHT22;12011;47.422;15.018;2023-02-02T16:24:55;0.80;99.90
23669;DHT22;12011;47.422;15.018;2023-02-02T16:27:29;0.80;99.90
23669;DHT22;12011;47.422;15.018;2023-02-02T16:30:06;0.90;99.90
23669;DHT22;12011;47.422;15.018;2023-02-02T16:32:38;0.90;99.90
23669;DHT22;12011;47.422;15.018;2023-02-02T16:35:30;0.90;99.90
23669;DHT22;12011;47.422;15.018;2023-02-02T16:38:22;0.90;99.90
23669;DHT22;12011;47.422;15.018;2023-02-02T16:41:06;0.90;99.90
23669;DHT22;12011;47.422;15.018;2023-02-02T16:43:37;0.70;99.90
23669;DHT22;12011;47.422;15.018;2023-02-02T16:46:12;1.00;99.90
23669;DHT22;12011;47.422;15.018;2023-02-02T16:48:51;0.80;99.90
23669;DHT22;12011;47.422;15.018;2023-02-02T16:51:26;0.70;99.90
23669;DHT22;12011;47.422;15.018;2023-02-02T16:54:01;0.70;99.90
23669;DHT22;12011;47.422;15.018;2023-02-02T16:56:42;0.90;99.90
23669;DHT22;12011;47.422;15.018;2023-02-02T16:59:19;0.70;99.90
23669;DHT22;12011;47.422;15.018;2023-02-02T17:01:56;0.70;99.90
23669;DHT22;12011;47.422;15.018;2023-02-02T17:04:29;0.70;99.90
23669;DHT22;12011;47.422;15.018;2023-02-02T17:07:06;0.70;99.90
23669;DHT22;12011;47.422;15.018;2023-02-02T17:09:40;0.80;99.90
23669;DHT22;12011;47.422;15.018;2023-02-02T17:12:24;0.90;99.90
23669;DHT22;12011;47.422;15.018;2023-02-02T17:14:56;0.60;99.90
23669;DHT22;12011;47.422;15.018;2023-02-02T17:17:35;0.60;99.90
23669;DHT22;12011;47.422;15.018;2023-02-02T17:20:05;0.70;99.90
23669;DHT22;12011;47.422;15.018;2023-02-02T17:22:39;0.60;99.90
23669;DHT22;12011;47.422;15.018;2023-02-02T17:25:14;0.60;99.90
23669;DHT22;12011;47.422;15.018;2023-02-02T17:27:46;0.60;99.90
23669;DHT22;12011;47.422;15.018;2023-02-02T17:30:18;0.60;99.90
23669;DHT22;12011;47.422;15.018;2023-02-02T17:32:50;0.60;99.90
23669;DHT22;12011;47.422;15.018;2023-02-02T17:35:22;0.60;99.90